TAF KLBE
KLBE 090524Z 0906/1006 28004KT P6SM BKN035 FM091100 00000KT P6SM BKN020 FM091600 19004KT P6SM BKN250 FM100400 16007KT P6SM BKN070 WS020/23040KT=
METAR KLBE
WC KLBE
WS KLBE
WV KLBE